Terminal Aerodrome Forecast
Issued by NWS

Home | Current Version | Previous Version | Text Only | Print | Product List | Glossary On
Versions: 1 2 3 4 5 6 7 8 9 10 11 12
000
FTUS46 KMTR 022300
TAFSJC
TAF
KSJC 022320Z 0300/0324 30011KT P6SM SKC
     FM030400 31006KT P6SM SKC
      TEMPO 0310/0314 SCT010
     FM031400 15008KT P6SM SCT010
     FM031700 30005KT P6SM FEW020=

USA.gov is the U.S. government's official web portal to all federal, state and local government web resources and services.